createdAt,value
2023-04-15T00:01:47.630Z,98.90
2023-04-15T00:04:15.900Z,98.84
2023-04-15T00:06:43.999Z,98.77
2023-04-15T00:09:12.684Z,98.92
2023-04-15T00:11:42.113Z,98.44
2023-04-15T00:14:11.417Z,98.76
2023-04-15T00:16:39.788Z,99.27
2023-04-15T00:19:08.358Z,99.38
2023-04-15T00:21:37.041Z,99.60
2023-04-15T00:24:05.353Z,99.28
2023-04-15T00:26:33.389Z,99.31
2023-04-15T00:29:02.911Z,99.52
2023-04-15T00:31:32.981Z,99.44
2023-04-15T00:34:02.413Z,99.22
2023-04-15T00:36:31.729Z,98.67
2023-04-15T00:39:00.061Z,98.74
2023-04-15T00:41:28.602Z,98.53
2023-04-15T00:43:56.782Z,98.88
2023-04-15T00:46:29.838Z,98.12
2023-04-15T00:48:58.121Z,97.98
2023-04-15T00:51:26.319Z,98.39
2023-04-15T00:53:54.363Z,98.11
2023-04-15T00:56:24.491Z,98.29
2023-04-15T00:58:55.242Z,98.03
2023-04-15T01:01:25.981Z,97.98
2023-04-15T01:03:54.374Z,98.89
2023-04-15T01:06:22.514Z,99.05
2023-04-15T01:08:50.875Z,99.19
2023-04-15T01:11:19.468Z,98.82
2023-04-15T01:13:48.613Z,98.53
2023-04-15T01:16:17.946Z,98.23
2023-04-15T01:18:47.557Z,97.55
2023-04-15T01:21:15.639Z,98.74
2023-04-15T01:23:48.458Z,98.37
2023-04-15T01:26:18.614Z,98.71
2023-04-15T01:28:46.818Z,98.87
2023-04-15T01:31:16.562Z,98.35
2023-04-15T01:33:44.691Z,98.27
2023-04-15T01:36:12.817Z,98.16
2023-04-15T01:38:41.198Z,98.19
2023-04-15T01:41:09.244Z,98.26
2023-04-15T01:43:38.753Z,98.64
2023-04-15T01:46:07.090Z,98.46
2023-04-15T01:48:35.450Z,98.40
2023-04-15T01:51:04.823Z,98.02
2023-04-15T01:53:33.483Z,97.84
2023-04-15T01:56:01.574Z,97.40
2023-04-15T01:58:29.490Z,97.93
2023-04-15T02:00:58.861Z,97.99
2023-04-15T02:03:27.740Z,97.69
2023-04-15T02:05:56.620Z,98.18
2023-04-15T02:08:24.603Z,98.19
2023-04-15T02:10:52.997Z,98.15
2023-04-15T02:13:20.896Z,98.38
2023-04-15T02:15:49.622Z,98.58
2023-04-15T02:18:19.018Z,98.90
2023-04-15T02:20:47.150Z,98.62
2023-04-15T02:23:15.679Z,98.23
2023-04-15T02:25:43.640Z,97.83
2023-04-15T02:28:21.830Z,97.80
2023-04-15T02:30:52.744Z,98.10
2023-04-15T02:33:23.037Z,98.26
2023-04-15T02:35:51.040Z,98.39
2023-04-15T02:38:19.057Z,98.33
2023-04-15T02:40:49.620Z,98.31
2023-04-15T02:43:18.218Z,98.26
2023-04-15T02:45:48.099Z,98.55
2023-04-15T02:48:18.019Z,98.72
2023-04-15T02:50:47.895Z,99.04
2023-04-15T02:53:16.098Z,99.25
2023-04-15T02:55:44.081Z,99.05
2023-04-15T02:58:12.080Z,98.94
2023-04-15T03:00:40.013Z,99.01
2023-04-15T03:03:08.410Z,99.21
2023-04-15T03:05:38.919Z,99.08
2023-04-15T03:08:08.193Z,99.28
2023-04-15T03:10:36.176Z,99.20
2023-04-15T03:13:04.148Z,99.51
2023-04-15T03:15:33.872Z,99.43
2023-04-15T03:18:01.611Z,99.30
2023-04-15T03:20:29.672Z,99.46
2023-04-15T03:22:57.680Z,99.27
2023-04-15T03:25:27.041Z,99.10
2023-04-15T03:27:54.993Z,98.82
2023-04-15T03:30:22.970Z,99.18
2023-04-15T03:32:51.611Z,99.30
2023-04-15T03:35:19.550Z,99.09
2023-04-15T03:37:49.086Z,99.36
2023-04-15T03:40:17.142Z,99.21
2023-04-15T03:42:46.518Z,99.26
2023-04-15T03:45:14.450Z,99.18
2023-04-15T03:47:42.408Z,99.15
2023-04-15T03:50:11.166Z,99.06
2023-04-15T03:52:39.334Z,99.32
2023-04-15T03:55:08.404Z,99.06
2023-04-15T03:57:38.988Z,99.19
2023-04-15T04:00:10.620Z,99.12
2023-04-15T04:02:39.374Z,99.14
2023-04-15T04:05:08.181Z,99.17
2023-04-15T04:07:36.551Z,99.21
2023-04-15T04:10:04.878Z,99.19
2023-04-15T04:12:32.867Z,99.08
2023-04-15T04:15:00.877Z,98.75
2023-04-15T04:17:30.372Z,98.59
2023-04-15T04:19:58.337Z,98.84
2023-04-15T04:22:26.455Z,98.59
2023-04-15T04:24:54.374Z,99.05
2023-04-15T04:27:22.265Z,98.79
2023-04-15T04:29:50.211Z,99.07
2023-04-15T04:32:18.412Z,99.13
2023-04-15T04:34:48.123Z,98.62
2023-04-15T04:37:16.098Z,98.92
2023-04-15T04:39:44.059Z,98.88
2023-04-15T04:42:12.121Z,98.42
2023-04-15T04:44:40.301Z,98.70
2023-04-15T04:47:08.540Z,99.12
2023-04-15T04:49:36.782Z,98.65
2023-04-15T04:52:06.486Z,98.41
2023-04-15T04:54:34.271Z,98.28
2023-04-15T04:57:02.443Z,98.61
2023-04-15T04:59:31.000Z,98.67
2023-04-15T05:01:59.077Z,98.34
2023-04-15T05:04:27.293Z,98.31
2023-04-15T05:06:55.173Z,98.49
2023-04-15T05:09:24.675Z,98.45
2023-04-15T05:11:52.715Z,98.38
2023-04-15T05:14:22.945Z,98.31
2023-04-15T05:16:51.875Z,98.39
2023-04-15T05:19:19.838Z,98.58
2023-04-15T05:21:48.051Z,98.69
2023-04-15T05:24:16.808Z,97.97
2023-04-15T05:26:46.334Z,98.63
2023-04-15T05:29:14.270Z,97.98
2023-04-15T05:31:42.551Z,97.93
2023-04-15T05:34:11.662Z,97.83
2023-04-15T05:36:39.705Z,97.57
2023-04-15T05:39:07.672Z,97.27
2023-04-15T05:41:36.017Z,96.93
2023-04-15T05:44:06.171Z,96.99
2023-04-15T05:46:34.239Z,96.89
2023-04-15T05:49:02.663Z,96.96
2023-04-15T05:51:31.185Z,96.51
2023-04-15T05:53:59.114Z,96.44
2023-04-15T05:56:27.335Z,96.20
2023-04-15T05:58:55.343Z,96.46
2023-04-15T06:01:25.360Z,95.53
2023-04-15T06:03:53.547Z,95.79
2023-04-15T06:06:21.651Z,95.18
2023-04-15T06:08:49.542Z,94.72
2023-04-15T06:11:17.565Z,94.16
2023-04-15T06:13:45.508Z,94.10
2023-04-15T06:16:13.584Z,93.66
2023-04-15T06:18:43.020Z,93.45
2023-04-15T06:21:11.570Z,92.89
2023-04-15T06:23:41.129Z,92.22
2023-04-15T06:26:10.553Z,92.46
2023-04-15T06:28:38.482Z,91.67
2023-04-15T06:31:06.610Z,92.04
2023-04-15T06:33:34.485Z,91.23
2023-04-15T06:36:03.727Z,90.63
2023-04-15T06:38:31.675Z,90.03
2023-04-15T06:40:59.907Z,90.65
2023-04-15T06:43:27.856Z,89.91
2023-04-15T06:45:56.501Z,89.84
2023-04-15T06:48:24.490Z,89.68
2023-04-15T06:50:52.549Z,89.41
2023-04-15T06:53:22.138Z,88.97
2023-04-15T06:55:50.394Z,88.34
2023-04-15T06:58:18.364Z,87.94
2023-04-15T07:00:46.503Z,87.83
2023-04-15T07:03:15.097Z,86.98
2023-04-15T07:05:43.361Z,86.31
2023-04-15T07:08:11.472Z,85.75
2023-04-15T07:10:41.446Z,85.68
2023-04-15T07:13:09.441Z,86.27
2023-04-15T07:15:37.413Z,86.06
2023-04-15T07:18:05.319Z,87.01
2023-04-15T07:20:33.248Z,86.48
2023-04-15T07:23:01.221Z,86.30
2023-04-15T07:25:29.186Z,86.45
2023-04-15T07:27:58.591Z,86.15
2023-04-15T07:30:26.595Z,85.90
2023-04-15T07:32:55.134Z,85.80
2023-04-15T07:35:23.421Z,85.65
2023-04-15T07:37:52.185Z,86.83
2023-04-15T07:40:20.082Z,86.66
2023-04-15T07:42:49.330Z,86.79
2023-04-15T07:45:18.937Z,86.81
2023-04-15T07:47:46.987Z,87.55
2023-04-15T07:50:16.170Z,87.04
2023-04-15T07:52:44.152Z,87.48
2023-04-15T07:55:12.151Z,86.46
2023-04-15T07:57:40.116Z,86.37
2023-04-15T08:00:10.122Z,86.64
2023-04-15T08:02:40.681Z,85.88
2023-04-15T08:05:10.601Z,85.76
2023-04-15T08:07:38.867Z,85.59
2023-04-15T08:10:08.622Z,85.55
2023-04-15T08:12:37.034Z,84.59
2023-04-15T08:15:06.603Z,84.91
2023-04-15T08:17:34.534Z,84.61
2023-04-15T08:20:05.798Z,83.62
2023-04-15T08:22:34.414Z,83.51
2023-04-15T08:25:02.443Z,83.96
2023-04-15T08:27:30.334Z,84.38
2023-04-15T08:29:58.472Z,84.84
2023-04-15T08:32:26.716Z,84.97
2023-04-15T08:34:54.948Z,84.54
2023-04-15T08:37:24.241Z,84.87
2023-04-15T08:39:52.185Z,84.28
2023-04-15T08:42:32.346Z,83.56
2023-04-15T08:45:02.433Z,84.02
2023-04-15T08:47:32.821Z,83.34
2023-04-15T08:50:04.613Z,83.79
2023-04-15T08:52:34.232Z,83.89
2023-04-15T08:55:04.823Z,84.05
2023-04-15T08:57:34.372Z,83.36
2023-04-15T09:00:05.881Z,84.39
2023-04-15T09:02:34.047Z,84.04
2023-04-15T09:05:04.951Z,84.01
2023-04-15T09:07:36.549Z,83.65
2023-04-15T09:10:05.497Z,83.76
2023-04-15T09:12:36.803Z,83.48
2023-04-15T09:15:05.891Z,82.80
2023-04-15T09:17:35.495Z,83.42
2023-04-15T09:20:12.966Z,83.17
2023-04-15T09:22:43.320Z,83.42
2023-04-15T09:25:29.204Z,82.97
2023-04-15T09:27:59.285Z,82.82
2023-04-15T09:30:29.199Z,82.77
2023-04-15T09:33:00.517Z,82.48
2023-04-15T09:35:29.164Z,82.21
2023-04-15T09:38:05.424Z,82.37
2023-04-15T09:40:35.893Z,81.82
2023-04-15T09:43:05.292Z,81.39
2023-04-15T09:45:35.719Z,81.83
2023-04-15T09:48:19.218Z,81.32
2023-04-15T09:50:48.819Z,82.48
2023-04-15T09:53:23.368Z,83.72
2023-04-15T09:55:54.516Z,84.35
2023-04-15T09:58:25.063Z,84.43
2023-04-15T10:00:55.286Z,85.03
2023-04-15T10:03:25.941Z,84.79
2023-04-15T10:05:56.742Z,85.56
2023-04-15T10:08:28.725Z,85.74
2023-04-15T10:10:57.306Z,86.04
2023-04-15T10:13:28.577Z,86.88
2023-04-15T10:16:00.446Z,87.13
2023-04-15T10:18:33.184Z,87.85
2023-04-15T10:21:02.918Z,88.20
2023-04-15T10:23:32.678Z,88.57
2023-04-15T10:26:01.632Z,88.66
2023-04-15T10:28:29.816Z,89.54
2023-04-15T10:30:59.295Z,89.86
2023-04-15T10:33:29.737Z,90.35
2023-04-15T10:35:58.604Z,90.27
2023-04-15T10:38:36.740Z,89.97
2023-04-15T10:41:20.820Z,90.04
2023-04-15T10:43:52.995Z,90.12
2023-04-15T10:46:25.560Z,90.63
2023-04-15T10:48:55.489Z,89.87
2023-04-15T10:51:31.937Z,89.62
2023-04-15T10:54:02.203Z,90.26
2023-04-15T10:56:32.295Z,90.33
2023-04-15T10:59:02.414Z,90.21
2023-04-15T11:01:56.391Z,89.75
2023-04-15T11:04:53.785Z,90.83
2023-04-15T11:07:54.783Z,91.00
2023-04-15T11:10:55.073Z,91.15
2023-04-15T11:13:29.355Z,90.92
2023-04-15T11:16:02.955Z,90.60
2023-04-15T11:18:34.279Z,91.24
2023-04-15T11:21:08.415Z,91.40
2023-04-15T11:23:40.693Z,91.47
2023-04-15T11:26:12.447Z,91.38
2023-04-15T11:28:42.430Z,91.37
2023-04-15T11:31:12.240Z,92.05
2023-04-15T11:33:48.940Z,91.45
2023-04-15T11:36:19.021Z,92.01
2023-04-15T11:38:49.106Z,92.07
2023-04-15T11:41:23.151Z,92.11
2023-04-15T11:43:51.774Z,92.40
2023-04-15T11:46:21.467Z,92.53
2023-04-15T11:48:49.356Z,92.31
2023-04-15T11:51:17.552Z,92.20
2023-04-15T11:53:48.484Z,92.28
2023-04-15T11:56:21.396Z,92.31
2023-04-15T11:58:52.903Z,92.28
2023-04-15T12:01:21.115Z,93.21
2023-04-15T12:03:50.757Z,92.81
2023-04-15T12:06:20.847Z,92.92
2023-04-15T12:09:00.430Z,93.31
2023-04-15T12:11:38.882Z,93.07
2023-04-15T12:14:17.786Z,93.36
2023-04-15T12:16:50.102Z,93.07
2023-04-15T12:19:26.251Z,93.22
2023-04-15T12:22:00.770Z,93.53
2023-04-15T12:24:33.344Z,93.94
2023-04-15T12:27:08.484Z,93.82
2023-04-15T12:29:39.332Z,94.58
2023-04-15T12:32:09.642Z,93.92
2023-04-15T12:34:40.285Z,94.12
2023-04-15T12:37:14.267Z,94.40
2023-04-15T12:39:44.865Z,94.67
2023-04-15T12:42:14.378Z,94.57
2023-04-15T12:44:43.081Z,93.93
2023-04-15T12:47:13.309Z,94.47
2023-04-15T12:49:42.003Z,94.83
2023-04-15T12:52:10.082Z,94.09
2023-04-15T12:54:38.130Z,94.11
2023-04-15T12:57:07.489Z,94.58
2023-04-15T12:59:37.473Z,94.74
2023-04-15T13:02:06.049Z,94.34
2023-04-15T13:04:34.346Z,94.22
2023-04-15T13:07:03.176Z,94.57
2023-04-15T13:09:31.267Z,94.20
2023-04-15T13:11:59.379Z,93.82
2023-04-15T13:14:28.270Z,94.54
2023-04-15T13:16:58.107Z,94.75
2023-04-15T13:19:26.668Z,94.53
2023-04-15T13:21:55.044Z,94.71
2023-04-15T13:24:23.200Z,95.14
2023-04-15T13:26:52.105Z,95.44
2023-04-15T13:29:20.203Z,96.04
2023-04-15T13:31:48.435Z,95.85
2023-04-15T13:34:18.050Z,96.36
2023-04-15T13:36:46.271Z,95.99
2023-04-15T13:39:14.441Z,95.67
2023-04-15T13:41:42.660Z,95.98
2023-04-15T13:44:12.308Z,95.84
2023-04-15T13:46:41.929Z,95.98
2023-04-15T13:49:10.412Z,95.68
2023-04-15T13:51:40.619Z,95.51
2023-04-15T13:54:14.270Z,95.65
2023-04-15T13:56:42.332Z,95.50
2023-04-15T13:59:10.794Z,95.60
2023-04-15T14:01:39.550Z,95.67
2023-04-15T14:04:08.218Z,95.80
2023-04-15T14:06:36.601Z,95.37
2023-04-15T14:09:06.614Z,95.85
2023-04-15T14:11:36.766Z,95.15
2023-04-15T14:14:05.117Z,95.84
2023-04-15T14:16:34.138Z,95.82
2023-04-15T14:19:03.844Z,96.04
2023-04-15T14:21:33.703Z,96.69
2023-04-15T14:24:01.937Z,96.52
2023-04-15T14:26:31.419Z,96.71
2023-04-15T14:28:59.637Z,96.71
2023-04-15T14:31:28.030Z,96.22
2023-04-15T14:33:59.230Z,95.94
2023-04-15T14:36:28.495Z,96.58
2023-04-15T14:38:57.014Z,96.55
2023-04-15T14:41:25.623Z,96.99
2023-04-15T14:43:55.116Z,96.73
2023-04-15T14:46:23.406Z,96.34
2023-04-15T14:48:51.548Z,96.44
2023-04-15T14:51:19.925Z,96.58
2023-04-15T14:53:50.587Z,96.55
2023-04-15T14:56:18.753Z,96.46
2023-04-15T14:58:47.006Z,97.41
2023-04-15T15:01:16.783Z,97.29
2023-04-15T15:03:44.806Z,97.06
2023-04-15T15:06:13.433Z,97.48
2023-04-15T15:08:41.604Z,96.89
2023-04-15T15:11:09.702Z,96.45
2023-04-15T15:13:40.227Z,96.32
2023-04-15T15:16:09.004Z,96.70
2023-04-15T15:18:38.457Z,97.45
2023-04-15T15:21:06.692Z,97.71
2023-04-15T15:23:34.561Z,97.97
2023-04-15T15:26:02.530Z,98.34
2023-04-15T15:28:30.492Z,98.42
2023-04-15T15:30:58.498Z,98.51
2023-04-15T15:33:28.052Z,97.87
2023-04-15T15:35:59.114Z,98.15
2023-04-15T15:38:27.316Z,98.30
2023-04-15T15:40:55.288Z,98.16
2023-04-15T15:43:23.150Z,98.09
2023-04-15T15:45:52.838Z,98.26
2023-04-15T15:48:20.937Z,98.12
2023-04-15T15:50:48.980Z,97.81
2023-04-15T15:53:20.842Z,97.62
2023-04-15T15:55:49.158Z,97.53
2023-04-15T15:58:17.089Z,97.83
2023-04-15T16:00:45.282Z,98.10
2023-04-15T16:03:13.356Z,97.69
2023-04-15T16:05:41.422Z,97.37
2023-04-15T16:08:09.622Z,98.03
2023-04-15T16:10:39.279Z,98.20
2023-04-15T16:13:07.380Z,97.48
2023-04-15T16:15:35.503Z,97.89
2023-04-15T16:18:03.509Z,98.32
2023-04-15T16:20:31.607Z,98.00
2023-04-15T16:23:00.300Z,97.83
2023-04-15T16:25:28.322Z,98.28
2023-04-15T16:28:05.382Z,98.07
2023-04-15T16:30:41.271Z,97.88
2023-04-15T16:33:10.613Z,98.30
2023-04-15T16:35:38.522Z,98.43
2023-04-15T16:38:06.481Z,98.49
2023-04-15T16:40:34.909Z,97.96
2023-04-15T16:43:04.481Z,98.61
2023-04-15T16:45:32.403Z,98.92
2023-04-15T16:48:00.416Z,98.75
2023-04-15T16:50:28.788Z,98.81
2023-04-15T16:52:56.888Z,98.91
2023-04-15T16:55:24.882Z,98.97
2023-04-15T16:58:01.883Z,98.79
2023-04-15T17:00:36.135Z,99.07
2023-04-15T17:03:04.809Z,99.10
2023-04-15T17:05:32.924Z,98.97
2023-04-15T17:08:01.112Z,98.64
2023-04-15T17:10:29.276Z,98.60
2023-04-15T17:12:58.801Z,98.65
2023-04-15T17:15:27.288Z,99.10
2023-04-15T17:17:56.710Z,98.79
2023-04-15T17:20:24.733Z,98.76
2023-04-15T17:22:52.679Z,99.07
2023-04-15T17:25:20.817Z,98.87
2023-04-15T17:27:48.826Z,98.91
2023-04-15T17:30:16.774Z,99.05
2023-04-15T17:32:44.793Z,98.86
2023-04-15T17:35:14.257Z,98.32
2023-04-15T17:37:42.275Z,98.91
2023-04-15T17:40:11.410Z,98.79
2023-04-15T17:42:39.387Z,98.86
2023-04-15T17:45:09.108Z,99.30
2023-04-15T17:47:36.898Z,99.15
2023-04-15T17:50:05.152Z,99.02
2023-04-15T17:52:34.705Z,99.32
2023-04-15T17:55:02.691Z,99.65
2023-04-15T17:57:30.892Z,99.52
2023-04-15T17:59:58.928Z,100.00
2023-04-15T18:02:27.106Z,99.81
2023-04-15T18:04:55.412Z,100.00
2023-04-15T18:07:23.526Z,100.00
2023-04-15T18:09:55.784Z,100.00
2023-04-15T18:12:23.796Z,100.00
2023-04-15T18:15:12.484Z,100.00
2023-04-15T18:17:43.298Z,100.00
2023-04-15T18:20:12.749Z,100.00
2023-04-15T18:22:59.688Z,100.00
2023-04-15T18:25:33.967Z,100.00
2023-04-15T18:28:01.994Z,100.00
2023-04-15T18:30:30.048Z,100.00
2023-04-15T18:32:58.142Z,100.00
2023-04-15T18:35:26.082Z,100.00
2023-04-15T18:37:54.191Z,100.00
2023-04-15T18:40:22.106Z,100.00
2023-04-15T18:42:52.493Z,100.00
2023-04-15T18:45:20.540Z,100.00
2023-04-15T18:47:48.789Z,100.00
2023-04-15T18:50:16.874Z,100.00
2023-04-15T18:52:44.935Z,100.00
2023-04-15T18:55:13.238Z,100.00
2023-04-15T18:57:44.733Z,100.00
2023-04-15T19:00:15.984Z,100.00
2023-04-15T19:02:44.144Z,100.00
2023-04-15T19:05:12.276Z,100.00
2023-04-15T19:07:41.111Z,100.00
2023-04-15T19:10:09.960Z,100.00
2023-04-15T19:12:38.015Z,100.00
2023-04-15T19:15:07.105Z,100.00
2023-04-15T19:17:36.565Z,100.00
2023-04-15T19:20:05.001Z,100.00
2023-04-15T19:22:33.122Z,100.00
2023-04-15T19:25:01.204Z,100.00
2023-04-15T19:27:29.195Z,100.00
2023-04-15T19:29:57.370Z,100.00
2023-04-15T19:32:25.369Z,100.00
2023-04-15T19:34:54.970Z,100.00
2023-04-15T19:37:23.100Z,100.00
2023-04-15T19:39:51.269Z,100.00
2023-04-15T19:42:19.223Z,100.00
2023-04-15T19:44:47.214Z,100.00
2023-04-15T19:47:15.446Z,99.92
2023-04-15T19:49:43.518Z,100.00
2023-04-15T19:52:13.116Z,100.00
2023-04-15T19:54:41.389Z,100.00
2023-04-15T19:57:09.488Z,100.00
2023-04-15T19:59:37.698Z,100.00
2023-04-15T20:02:05.968Z,100.00
2023-04-15T20:04:34.051Z,100.00
2023-04-15T20:07:02.141Z,99.86
2023-04-15T20:09:31.430Z,99.79
2023-04-15T20:12:48.058Z,99.80
2023-04-15T20:14:47.740Z,100.00
2023-04-15T20:17:15.972Z,100.00
2023-04-15T20:19:43.881Z,99.61
2023-04-15T20:22:11.830Z,99.64
2023-04-15T20:24:41.139Z,100.00
2023-04-15T20:27:09.284Z,99.80
2023-04-15T20:29:37.758Z,99.99
2023-04-15T20:32:06.665Z,99.33
2023-04-15T20:34:35.052Z,99.24
2023-04-15T20:37:03.028Z,99.65
2023-04-15T20:39:31.179Z,99.52
2023-04-15T20:42:01.271Z,99.43
2023-04-15T20:44:29.216Z,99.67
2023-04-15T20:46:57.427Z,99.10
2023-04-15T20:49:25.651Z,99.47
2023-04-15T20:51:53.551Z,99.64
2023-04-15T20:54:21.842Z,99.40
2023-04-15T20:56:49.799Z,99.40
2023-04-15T20:59:19.310Z,99.42
2023-04-15T21:01:47.689Z,99.52
2023-04-15T21:04:15.729Z,98.85
2023-04-15T21:06:43.719Z,99.39
2023-04-15T21:09:11.803Z,99.64
2023-04-15T21:11:57.530Z,99.52
2023-04-15T21:14:28.993Z,99.42
2023-04-15T21:16:58.439Z,99.79
2023-04-15T21:19:26.337Z,99.50
2023-04-15T21:21:54.268Z,99.99
2023-04-15T21:24:22.139Z,99.77
2023-04-15T21:26:50.108Z,99.12
2023-04-15T21:29:18.203Z,99.77
2023-04-15T21:31:47.887Z,100.00
2023-04-15T21:34:15.651Z,99.64
2023-04-15T21:36:43.663Z,99.43
2023-04-15T21:39:11.563Z,100.00
2023-04-15T21:41:39.575Z,99.34
2023-04-15T21:44:07.518Z,99.75
2023-04-15T21:46:36.010Z,99.65
2023-04-15T21:49:06.877Z,99.74
2023-04-15T21:51:35.153Z,99.75
2023-04-15T21:54:03.108Z,100.00
2023-04-15T21:56:30.946Z,99.53
2023-04-15T21:58:59.775Z,99.88
2023-04-15T22:01:27.927Z,100.00
2023-04-15T22:03:56.238Z,99.98
2023-04-15T22:06:25.555Z,100.00
2023-04-15T22:08:57.403Z,99.70
2023-04-15T22:11:28.188Z,100.00
2023-04-15T22:13:57.685Z,99.92
2023-04-15T22:16:26.776Z,100.00
2023-04-15T22:18:55.309Z,99.51
2023-04-15T22:21:23.314Z,100.00
2023-04-15T22:24:32.862Z,99.70
2023-04-15T22:26:42.225Z,100.00
2023-04-15T22:29:10.544Z,99.51
2023-04-15T22:31:38.526Z,99.87
2023-04-15T22:34:06.486Z,99.90
2023-04-15T22:36:34.444Z,99.40
2023-04-15T22:39:04.112Z,99.32
2023-04-15T22:41:32.329Z,99.32
2023-04-15T22:44:00.195Z,99.64
2023-04-15T22:46:28.182Z,99.48
2023-04-15T22:48:56.095Z,99.32
2023-04-15T22:51:26.941Z,99.22
2023-04-15T22:53:55.188Z,99.26
2023-04-15T22:56:24.805Z,99.65
2023-04-15T22:58:53.508Z,99.47
2023-04-15T23:01:21.623Z,99.07
2023-04-15T23:03:57.069Z,99.29
2023-04-15T23:06:28.127Z,99.26
2023-04-15T23:08:56.073Z,99.82
2023-04-15T23:11:25.450Z,99.37
2023-04-15T23:13:53.427Z,99.50
2023-04-15T23:16:21.440Z,99.41
2023-04-15T23:18:49.518Z,99.21
2023-04-15T23:21:17.853Z,99.44
2023-04-15T23:23:45.778Z,99.95
2023-04-15T23:26:13.774Z,99.62
2023-04-15T23:28:43.139Z,99.97
2023-04-15T23:31:11.117Z,99.65
2023-04-15T23:33:39.111Z,100.00
2023-04-15T23:36:07.503Z,99.52
2023-04-15T23:38:35.554Z,99.06
2023-04-15T23:41:03.495Z,99.52
2023-04-15T23:43:31.392Z,100.00
2023-04-15T23:46:00.705Z,99.65
2023-04-15T23:48:30.021Z,99.93
2023-04-15T23:50:58.000Z,99.77
2023-04-15T23:53:25.908Z,99.18
2023-04-15T23:55:54.212Z,99.64
2023-04-15T23:58:22.169Z,99.28
